Have a Safe July 4th! 

Flight Track Log - Related Links

Times and Time Zones

All times are in EDT time to prevent confusion due to time zone crossing. See the EGC652 flight status page for this flight to view local times or setup timezone preferences in your user account.

Time Position Orientation Groundspeed Altitude Reporting Facility
EDT Latitude Longitude Course Direction KTS MPH feet Rate Location/Type
Fri 03:27:59 PM 28.4167 -81.3333 180° South 146 168 700  Level Orlando TRACON
Fri 03:28:35 PM 28.3833 -81.3333 180° South 186 214 1,500 2,000 Climbing Orlando TRACON
Fri 03:29:41 PM 28.3333 -81.3667 210° Southwest 193 222 4,100 2,430 Climbing Orlando TRACON
Fri 03:30:36 PM 28.3333 -81.4167 270° West 206 237 6,400 2,243 Climbing Orlando TRACON
Fri 03:31:36 PM 28.3333 -81.4833 270° West 215 247 8,400 1,952 Climbing Orlando TRACON
Fri 03:32:42 PM 28.3333 -81.5667 270° West 236 272 10,500 1,891 Climbing Orlando TRACON
Fri 03:34:40 PM 28.3136 -81.7067 261° West 238 274 14,200 1,820 Climbing Jacksonville Center
Fri 03:35:40 PM 28.3078 -81.7822 265° West 238 274 15,900 1,750 Climbing Jacksonville Center
Fri 03:36:40 PM 28.3003 -81.8622 264° West 238 274 17,700 1,550 Climbing Jacksonville Center
Fri 03:37:40 PM 28.2925 -81.9403 264° West 243 280 19,000 1,400 Climbing Jacksonville Center
Fri 03:38:40 PM 28.2847 -82.0206 264° West 249 287 20,500 1,550 Climbing Jacksonville Center
Fri 03:39:40 PM 28.2747 -82.1006 262° West 256 295 22,100 1,500 Climbing Jacksonville Center
Fri 03:40:40 PM 28.2647 -82.1833 262° West 261 300 23,500 1,300 Climbing Jacksonville Center
Fri 03:41:40 PM 28.2611 -82.2658 267° West 261 300 24,700 1,250 Climbing Jacksonville Center
Fri 03:42:40 PM 28.3053 -82.3314 307° West 253 291 26,000 1,150 Climbing Jacksonville Center
Fri 03:43:40 PM 28.3764 -82.3689 335° Northwest 248 285 27,000 1,000 Climbing Jacksonville Center
Fri 03:44:40 PM 28.4494 -82.4108 333° Northwest 270 311 28,000 1,000 Climbing Jacksonville Center
Fri 03:45:40 PM 28.5228 -82.4531 333° Northwest 284 327 29,000 950 Climbing Jacksonville Center
Fri 03:46:40 PM 28.5958 -82.4906 336° Northwest 289 333 29,900 950 Climbing Jacksonville Center
Fri 03:47:40 PM 28.6753 -82.5353 334° Northwest 299 344 30,900 1,150 Climbing Jacksonville Center
Fri 03:48:40 PM 28.7525 -82.5753 336° Northwest 299 344 32,200 1,200 Climbing Jacksonville Center
Fri 03:49:40 PM 28.8236 -82.6178 332° Northwest 299 344 33,300 900 Climbing Jacksonville Center
Fri 03:50:40 PM 28.8969 -82.6553 336° Northwest 288 331 34,000 350 Climbing Jacksonville Center
Fri 03:51:40 PM 28.9719 -82.7003 332° Northwest 288 331 34,000  Level Jacksonville Center
Fri 03:52:40 PM 29.0556 -82.7453 335° Northwest 295 339 34,000  Level Jacksonville Center
Fri 03:53:40 PM 29.1392 -82.7903 335° Northwest 316 364 34,000  Level Jacksonville Center
Fri 03:54:40 PM 29.2228 -82.8378 334° Northwest 321 369 34,000  Level Jacksonville Center
Fri 03:55:40 PM 29.3083 -82.8856 334° Northwest 326 375 34,000  Level Jacksonville Center
Fri 03:56:40 PM 29.3917 -82.9331 334° Northwest 326 375 34,000  Level Jacksonville Center
Fri 03:57:40 PM 29.4794 -82.9833 334° Northwest 331 381 34,000 400 Level Jacksonville Center
Fri 03:58:40 PM 29.5567 -83.0286 333° Northwest 344 396 34,800 900 Climbing Jacksonville Center
Fri 03:59:40 PM 29.6339 -83.0717 334° Northwest 332 382 35,800 1,600 Climbing Jacksonville Center
Fri 04:00:40 PM 29.7236 -83.1150 337° Northwest 312 359 38,000 850 Climbing Jacksonville Center
Fri 04:01:40 PM 29.7964 -83.1439 341° North 312 359 37,500  Descending Jacksonville Center
Fri 04:02:40 PM 29.8717 -83.1800 337° Northwest 306 352 38,000 250 Climbing Jacksonville Center
Fri 04:03:40 PM 29.9508 -83.2161 338° Northwest 306 352 38,000  Level Jacksonville Center
Fri 04:04:40 PM 30.0406 -83.2550 339° North 319 367 38,000  Level Jacksonville Center
Fri 04:05:40 PM 30.1261 -83.2961 337° Northwest 324 373 38,000  Level Jacksonville Center
Fri 04:06:40 PM 30.2156 -83.3372 338° Northwest 329 379 38,000  Level Jacksonville Center
Fri 04:07:40 PM 30.3011 -83.3761 339° North 329 379 38,000  Level Jacksonville Center
Fri 04:08:40 PM 30.3844 -83.4150 338° Northwest 329 379 38,000  Level Jacksonville Center
Fri 04:09:40 PM 30.4700 -83.4542 338° Northwest 329 379 38,000  Level Jacksonville Center
Fri 04:10:40 PM 30.5553 -83.4956 337° Northwest 329 379 38,000  Level Jacksonville Center
Fri 04:11:40 PM 30.6428 -83.5372 338° Northwest 329 379 38,000  Level Jacksonville Center
Fri 04:12:40 PM 30.7242 -83.5742 339° North 329 379 38,000  Level Jacksonville Center
Fri 04:13:40 PM 30.8072 -83.6158 337° Northwest 324 373 38,000  Level Jacksonville Center
Fri 04:14:40 PM 30.8947 -83.6575 338° Northwest 324 373 38,000  Level Jacksonville Center
Fri 04:15:40 PM 30.9822 -83.6994 338° Northwest 330 380 38,000  Level Jacksonville Center
Fri 04:17:20 PM 31.1347 -83.7744 337° Northwest 330 380 38,000  Level Atlanta Center
Fri 04:18:20 PM 31.2225 -83.8131 339° North 330 380 38,000  Level Atlanta Center
Fri 04:19:20 PM 31.3083 -83.8592 335° Northwest 330 380 38,000  Level Atlanta Center
Fri 04:20:20 PM 31.3958 -83.9003 338° Northwest 335 386 38,000  Level Atlanta Center
Fri 04:21:20 PM 31.4836 -83.9414 338° Northwest 335 386 38,000  Level Atlanta Center
Fri 04:22:20 PM 31.5733 -83.9731 343° North 335 386 38,000  Level Atlanta Center
Fri 04:23:20 PM 31.6589 -83.9950 348° North 335 386 38,000  Level Atlanta Center
Fri 04:24:20 PM 31.7569 -84.0144 350° North 341 392 38,000  Level Atlanta Center
Fri 04:25:20 PM 31.8511 -84.0339 350° North 341 392 38,000  Level Atlanta Center
Fri 04:26:20 PM 31.9450 -84.0558 349° North 346 398 38,000  Level Atlanta Center
Fri 04:27:20 PM 32.0408 -84.0756 350° North 346 398 38,000  Level Atlanta Center
Fri 04:28:20 PM 32.1347 -84.0978 349° North 346 398 38,000  Level Atlanta Center
Fri 04:29:20 PM 32.2308 -84.1175 350° North 346 398 38,000  Level Atlanta Center
Fri 04:30:20 PM 32.3247 -84.1397 349° North 346 398 38,000  Level Atlanta Center
Fri 04:31:20 PM 32.4208 -84.1619 349° North 346 398 38,000  Level Atlanta Center
Fri 04:32:20 PM 32.5167 -84.1842 349° North 341 392 38,000  Level Atlanta Center
Fri 04:33:20 PM 32.6106 -84.2042 350° North 346 398 38,000  Level Atlanta Center
Fri 04:34:20 PM 32.7067 -84.2264 349° North 346 398 38,000  Level Atlanta Center
Fri 04:35:20 PM 32.8025 -84.2489 349° North 346 398 38,000  Level Atlanta Center
Fri 04:36:20 PM 32.8986 -84.2689 350° North 351 404 38,000  Level Atlanta Center
Fri 04:37:20 PM 32.9944 -84.2914 349° North 351 404 38,000  Level Atlanta Center
Fri 04:38:20 PM 33.0883 -84.3117 350° North 351 404 38,000  Level Atlanta Center
Fri 04:39:20 PM 33.1781 -84.3342 348° North 346 398 38,000 50 Level Atlanta Center
Fri 04:40:20 PM 33.2719 -84.3544 350° North 340 391 38,100 350 Climbing Atlanta Center
Fri 04:41:20 PM 33.3700 -84.3772 349° North 334 384 38,700 650 Climbing Atlanta Center
Fri 04:42:20 PM 33.4536 -84.3975 349° North 327 376 39,400 650 Climbing Atlanta Center
Fri 04:43:20 PM 33.5369 -84.4150 350° North 312 359 40,000 300 Climbing Atlanta Center
Fri 04:44:20 PM 33.6203 -84.4356 348° North 305 351 40,000  Level Atlanta Center
Fri 04:45:20 PM 33.7081 -84.4583 348° North 311 358 40,000  Level Atlanta Center
Fri 04:46:20 PM 33.7997 -84.4789 349° North 316 364 40,000  Level Atlanta Center
Fri 04:47:20 PM 33.8853 -84.4992 349° North 322 371 40,000  Level Atlanta Center
Fri 04:48:20 PM 33.9769 -84.5222 348° North 322 371 40,000  Level Atlanta Center
Fri 04:49:20 PM 34.0667 -84.5428 349° North 322 371 40,000  Level Atlanta Center
Fri 04:50:20 PM 34.1583 -84.5661 348° North 327 376 40,000  Level Atlanta Center
Fri 04:51:20 PM 34.2458 -84.5842 350° North 327 376 40,000  Level Atlanta Center
Fri 04:52:20 PM 34.3314 -84.6072 347° North 321 369 40,000  Level Atlanta Center
Fri 04:53:20 PM 34.4189 -84.6306 348° North 316 364 40,000  Level Atlanta Center
Fri 04:54:20 PM 34.5044 -84.6489 350° North 316 364 40,000  Level Atlanta Center
Fri 04:55:20 PM 34.5919 -84.6697 349° North 316 364 40,000  Level Atlanta Center
Fri 04:56:20 PM 34.6753 -84.6931 347° North 316 364 40,000  Level Atlanta Center
Fri 04:57:20 PM 34.7608 -84.7139 349° North 310 357 40,000  Level Atlanta Center
Fri 04:58:20 PM 34.8483 -84.7347 349° North 310 357 40,000  Level Atlanta Center
Fri 04:59:20 PM 34.9339 -84.7583 347° North 316 364 40,000  Level Atlanta Center
Fri 05:00:20 PM 35.0214 -84.7794 349° North 316 364 40,000  Level Atlanta Center
Fri 05:01:20 PM 35.1089 -84.8006 349° North 316 364 40,000  Level Atlanta Center
Fri 05:02:20 PM 35.1942 -84.8217 349° North 316 364 40,000  Level Atlanta Center
Fri 05:03:20 PM 35.2817 -84.8453 348° North 316 364 40,000  Level Atlanta Center
Fri 05:04:20 PM 35.3714 -84.8664 349° North 316 364 40,000  Level Atlanta Center
Fri 05:05:20 PM 35.4608 -84.8878 349° North 316 364 40,000  Level Atlanta Center
Fri 05:06:20 PM 35.5483 -84.9117 347° North 316 364 40,000  Level Atlanta Center
Fri 05:07:20 PM 35.6358 -84.9331 349° North 316 364 40,000  Level Atlanta Center
Fri 05:08:20 PM 35.7231 -84.9594 346° North 316 364 40,000  Level Atlanta Center
Fri 05:09:20 PM 35.8128 -84.9733 353° North 331 381 40,000  Level Atlanta Center
Fri 05:10:20 PM 35.8981 -84.9975 347° North 331 381 40,000  Level Atlanta Center
Fri 05:12:33 PM 36.0947 -85.0489 348° North 325 374 40,000  Level Indianapolis Center
Fri 05:13:35 PM 36.1828 -85.0711 348° North 323 372 40,000  Level Indianapolis Center
Fri 05:14:37 PM 36.2897 -85.0986 348° North 325 374 40,000  Level Indianapolis Center
Fri 05:15:38 PM 36.3781 -85.1211 348° North 323 372 40,000  Level Indianapolis Center
Fri 05:16:40 PM 36.4658 -85.1433 348° North 322 371 40,000  Level Indianapolis Center
Fri 05:17:42 PM 36.5539 -85.1658 348° North 324 373 40,000  Level Indianapolis Center
Fri 05:18:44 PM 36.6419 -85.1903 347° North 323 372 40,000  Level Indianapolis Center
Fri 05:19:46 PM 36.7314 -85.2133 348° North 327 376 40,000 -871 Level Indianapolis Center
Fri 05:20:48 PM 36.8258 -85.2372 349° North 342 394 38,200 -2,049 Descending Indianapolis Center
Fri 05:21:49 PM 36.9503 -85.2694 348° North 377 434 35,800 -2,000 Descending Indianapolis Center
Fri 05:22:51 PM 37.0506 -85.2967 348° North 377 434 34,100 -1,500 Descending Indianapolis Center
Fri 05:23:53 PM 37.1489 -85.3225 348° North 364 419 32,700 -1,016 Descending Indianapolis Center
Fri 05:24:55 PM 37.2561 -85.3494 349° North 386 444 32,000 -339 Descending Indianapolis Center
Fri 05:25:57 PM 37.3636 -85.3786 348° North 393 452 32,000  Level Indianapolis Center
Fri 05:26:59 PM 37.4706 -85.4081 348° North 393 452 32,000  Level Indianapolis Center
Fri 05:28:01 PM 37.5956 -85.4414 348° North 392 451 32,000  Level Indianapolis Center
Fri 05:29:03 PM 37.7019 -85.4692 348° North 391 450 32,000  Level Indianapolis Center
Fri 05:30:04 PM 37.8056 -85.4992 347° North 382 440 32,000  Level Indianapolis Center
Fri 05:31:06 PM 37.9125 -85.5256 349° North 386 444 32,000  Level Indianapolis Center
Fri 05:32:08 PM 38.0158 -85.5533 348° North 380 437 32,000  Level Indianapolis Center
Fri 05:33:10 PM 38.1189 -85.5800 348° North 378 435 32,000  Level Indianapolis Center
Fri 05:34:12 PM 38.2261 -85.5928 355° North 382 440 32,000 -1,161 Level Indianapolis Center
Fri 05:35:14 PM 38.3361 -85.6061 355° North 393 452 29,600 -2,613 Descending Indianapolis Center
Fri 05:36:16 PM 38.4714 -85.6222 355° North 405 466 26,600 -2,613 Descending Indianapolis Center
Fri 05:37:18 PM 38.5831 -85.6356 355° North 404 465 24,200 -1,258 Descending Indianapolis Center
Fri 05:38:20 PM 38.6917 -85.6542 352° North 383 441 24,000 -97 Descending Indianapolis Center
Fri 05:39:22 PM 38.7967 -85.6733 352° North 382 440 24,000 -1,161 Level Indianapolis Center
Fri 05:40:24 PM 38.8967 -85.6914 352° North 368 423 21,600 -2,758 Descending Indianapolis Center
Fri 05:41:26 PM 38.9931 -85.7083 352° North 352 405 18,300 -3,339 Descending Indianapolis Center
Fri 05:42:28 PM 39.0861 -85.7250 352° North 342 394 14,700 -2,419 Descending Indianapolis Center
Fri 05:43:30 PM 39.1936 -85.7450 352° North 327 376 13,300 -1,306 Descending Indianapolis Center
Fri 05:44:32 PM 39.2836 -85.7611 352° North 328 377 12,000 -1,258 Descending Indianapolis Center
Fri 05:45:34 PM 39.3569 -85.8203 328° Northwest 319 367 10,700 -968 Descending Indianapolis Center
Fri 05:46:36 PM 39.4219 -85.8964 318° Northwest 315 362 10,000 -677 Descending Indianapolis Center
Fri 05:47:38 PM 39.4847 -85.9717 317° Northwest 311 358 9,300 -1,016 Descending Indianapolis Center
Fri 05:48:40 PM 39.5453 -86.0442 317° Northwest 301 346 7,900 -1,548 Descending Indianapolis Center
Fri 05:49:42 PM 39.6169 -86.1297 317° Northwest 294 338 6,100 -1,210 Descending Indianapolis Center
Fri 05:50:44 PM 39.6769 -86.2014 317° Northwest 294 338 5,400 -978 Descending Indianapolis Center
Fri 05:51:14 PM 39.7167 -86.2333 328° Northwest 283 326 4,600 -1,455 Descending Indianapolis TRACON
Fri 05:51:50 PM 39.7500 -86.2833 311° West 265 305 3,800 -938 Descending Indianapolis TRACON
Fri 05:52:50 PM 39.7833 -86.3333 311° West 206 237 3,100 -762 Descending Indianapolis TRACON
Fri 05:53:56 PM 39.8167 -86.2833 49° Northeast 172 198 2,200 -619 Descending Indianapolis TRACON
Fri 05:54:56 PM 39.8500 -86.2500 38° Northeast 160 184 1,800 -421 Descending Indianapolis TRACON
Fri 05:55:50 PM 39.8667 -86.2833 303° West 120 138 1,400 -474 Descending Indianapolis TRACON
Fri 05:56:50 PM 39.8333 -86.2833 180° South 91 105 900 -208 Descending Indianapolis TRACON
Fri 05:58:14 PM 39.8333 -86.3000 270° West 91 105 900  Level Indianapolis TRACON

Login

Don't have an account? Register now (free) for customized features, flight alerts, and more!